createdAt,value
2018-05-18T00:01:15.189Z,96.90
2018-05-18T00:06:09.565Z,96.60
2018-05-18T00:11:03.936Z,97.30
2018-05-18T00:15:58.316Z,97.70
2018-05-18T00:20:52.664Z,97.90
2018-05-18T00:25:47.177Z,98.10
2018-05-18T00:30:41.950Z,97.70
2018-05-18T00:35:36.418Z,97.30
2018-05-18T00:40:31.074Z,96.70
2018-05-18T00:45:25.576Z,96.70
2018-05-18T00:50:20.140Z,96.50
2018-05-18T00:55:32.372Z,95.40
2018-05-18T01:00:26.712Z,95.40
2018-05-18T01:05:21.265Z,95.10
2018-05-18T01:10:16.450Z,94.60
2018-05-18T01:15:10.844Z,94.50
2018-05-18T01:20:05.202Z,94.30
2018-05-18T01:25:00.748Z,93.70
2018-05-18T01:29:55.155Z,93.60
2018-05-18T01:34:49.611Z,93.40
2018-05-18T01:39:44.001Z,93.30
2018-05-18T01:44:38.399Z,93.30
2018-05-18T01:49:32.802Z,92.80
2018-05-18T01:54:27.163Z,92.60
2018-05-18T01:59:21.555Z,92.80
2018-05-18T02:04:15.924Z,92.40
2018-05-18T02:09:10.334Z,92.20
2018-05-18T02:14:04.708Z,92.20
2018-05-18T02:18:59.098Z,92.20
2018-05-18T02:23:53.458Z,92.00
2018-05-18T02:28:47.869Z,91.80
2018-05-18T02:33:43.015Z,91.50
2018-05-18T02:38:37.403Z,91.50
2018-05-18T02:43:31.527Z,91.50
2018-05-18T02:48:25.915Z,91.50
2018-05-18T02:53:20.278Z,91.50
2018-05-18T02:58:15.431Z,91.30
2018-05-18T03:03:09.811Z,91.30
2018-05-18T03:08:04.915Z,91.20
2018-05-18T03:12:59.271Z,91.10
2018-05-18T03:17:53.635Z,91.20
2018-05-18T03:22:48.035Z,91.20
2018-05-18T03:27:43.220Z,90.70
2018-05-18T03:32:37.582Z,90.70
2018-05-18T03:37:32.111Z,90.70
2018-05-18T03:42:26.737Z,90.80
2018-05-18T03:47:21.904Z,90.50
2018-05-18T03:52:16.389Z,90.30
2018-05-18T03:57:11.026Z,90.20
2018-05-18T04:02:22.951Z,90.50
2018-05-18T04:07:34.630Z,90.10
2018-05-18T04:12:30.800Z,90.10
2018-05-18T04:17:25.360Z,90.10
2018-05-18T04:22:19.836Z,90.10
2018-05-18T04:27:14.252Z,90.30
2018-05-18T04:32:08.658Z,89.90
2018-05-18T04:37:03.222Z,89.80
2018-05-18T04:41:57.899Z,89.70
2018-05-18T04:46:52.320Z,89.80
2018-05-18T04:51:47.469Z,89.80
2018-05-18T04:56:42.092Z,89.80
2018-05-18T05:01:36.565Z,89.20
2018-05-18T05:06:31.204Z,88.30
2018-05-18T05:11:25.606Z,87.70
2018-05-18T05:16:20.634Z,87.50
2018-05-18T05:21:15.186Z,86.70
2018-05-18T05:26:10.394Z,86.40
2018-05-18T05:31:05.482Z,86.40
2018-05-18T05:36:00.856Z,86.40
2018-05-18T05:40:55.440Z,85.90
2018-05-18T05:45:50.020Z,85.80
2018-05-18T05:50:44.486Z,85.40
2018-05-18T05:55:39.070Z,84.90
2018-05-18T06:00:34.380Z,82.70
2018-05-18T06:05:28.808Z,82.70
2018-05-18T06:10:23.343Z,82.20
2018-05-18T06:15:17.881Z,81.30
2018-05-18T06:20:12.245Z,79.60
2018-05-18T06:25:06.672Z,78.70
2018-05-18T06:30:01.075Z,77.50
2018-05-18T06:34:56.159Z,76.30
2018-05-18T06:39:50.901Z,75.50
2018-05-18T06:44:45.230Z,74.30
2018-05-18T06:49:39.580Z,74.50
2018-05-18T06:54:34.138Z,72.90
2018-05-18T06:59:28.474Z,71.70
2018-05-18T07:04:23.601Z,66.00
2018-05-18T07:09:18.721Z,63.50
2018-05-18T07:14:13.166Z,63.40
2018-05-18T07:19:07.662Z,59.50
2018-05-18T07:24:01.807Z,56.60
2018-05-18T07:28:56.279Z,54.20
2018-05-18T07:33:50.774Z,51.60
2018-05-18T07:38:45.173Z,49.80
2018-05-18T07:43:40.381Z,47.70
2018-05-18T07:48:34.754Z,46.00
2018-05-18T07:53:29.904Z,46.60
2018-05-18T07:58:24.436Z,46.40
2018-05-18T08:03:19.036Z,47.00
2018-05-18T08:08:13.396Z,45.30
2018-05-18T08:13:08.554Z,38.30
2018-05-18T08:18:02.908Z,38.10
2018-05-18T08:22:57.255Z,34.90
2018-05-18T08:27:51.641Z,30.90
2018-05-18T08:32:46.048Z,28.80
2018-05-18T08:37:40.688Z,24.40
2018-05-18T08:42:35.515Z,21.30
2018-05-18T08:47:30.160Z,19.10
2018-05-18T08:52:25.760Z,20.20
2018-05-18T08:57:20.412Z,18.80
2018-05-18T09:02:15.048Z,19.00
2018-05-18T09:07:10.440Z,17.30
2018-05-18T09:12:05.840Z,16.10
2018-05-18T09:17:00.985Z,16.20
2018-05-18T09:21:55.756Z,15.90
2018-05-18T09:26:50.403Z,14.90
2018-05-18T09:31:45.099Z,14.90
2018-05-18T09:36:39.779Z,15.60
2018-05-18T09:41:34.410Z,16.40
2018-05-18T09:46:29.239Z,17.30
2018-05-18T09:51:24.054Z,17.60
2018-05-18T09:56:18.684Z,19.70
2018-05-18T10:01:13.338Z,21.90
2018-05-18T10:06:07.961Z,23.80
2018-05-18T10:11:02.449Z,25.40
2018-05-18T10:15:57.055Z,26.80
2018-05-18T10:20:51.509Z,28.80
2018-05-18T10:25:46.680Z,34.70
2018-05-18T10:30:41.138Z,34.50
2018-05-18T10:35:36.349Z,36.60
2018-05-18T10:40:30.896Z,36.50
2018-05-18T10:45:25.303Z,37.60
2018-05-18T10:50:20.144Z,38.80
2018-05-18T10:55:14.734Z,39.20
2018-05-18T11:00:09.091Z,43.20
2018-05-18T11:05:04.224Z,45.20
2018-05-18T11:09:59.364Z,48.30
2018-05-18T11:14:53.794Z,48.30
2018-05-18T11:19:48.173Z,47.80
2018-05-18T11:24:42.551Z,46.80
2018-05-18T11:29:37.677Z,45.80
2018-05-18T11:34:32.931Z,46.90
2018-05-18T11:39:27.308Z,46.30
2018-05-18T11:44:21.668Z,46.30
2018-05-18T11:49:17.137Z,47.60
2018-05-18T11:54:12.315Z,49.00
2018-05-18T11:59:06.689Z,49.00
2018-05-18T12:04:01.085Z,49.60
2018-05-18T12:08:55.569Z,49.10
2018-05-18T12:13:50.244Z,49.10
2018-05-18T12:18:44.619Z,48.70
2018-05-18T12:23:39.031Z,49.40
2018-05-18T12:28:33.407Z,48.60
2018-05-18T12:33:27.828Z,48.90
2018-05-18T12:38:22.354Z,47.80
2018-05-18T12:43:16.901Z,48.30
2018-05-18T12:48:12.130Z,48.60
2018-05-18T12:53:09.206Z,47.20
2018-05-18T12:58:03.674Z,47.20
2018-05-18T13:02:58.097Z,46.80
2018-05-18T13:07:53.477Z,46.20
2018-05-18T13:12:48.138Z,46.10
2018-05-18T13:17:42.593Z,45.70
2018-05-18T13:22:36.960Z,45.50
2018-05-18T13:27:31.567Z,45.90
2018-05-18T13:32:25.935Z,45.10
2018-05-18T13:37:20.356Z,45.90
2018-05-18T13:42:15.540Z,44.90
2018-05-18T13:47:09.914Z,44.80
2018-05-18T13:52:04.288Z,44.60
2018-05-18T13:56:58.777Z,44.20
2018-05-18T14:01:54.024Z,41.60
2018-05-18T14:06:48.364Z,41.50
2018-05-18T14:11:42.776Z,41.00
2018-05-18T14:16:38.176Z,40.40
2018-05-18T14:21:32.548Z,40.30
2018-05-18T14:26:27.748Z,41.50
2018-05-18T14:31:22.251Z,41.50
2018-05-18T14:36:16.608Z,41.40
2018-05-18T14:41:10.963Z,41.30
2018-05-18T14:46:06.232Z,40.00
2018-05-18T14:51:00.686Z,40.00
2018-05-18T14:55:55.876Z,39.70
2018-05-18T15:00:50.220Z,39.60
2018-05-18T15:05:45.432Z,39.80
2018-05-18T15:10:40.012Z,39.80
2018-05-18T15:15:34.498Z,39.20
2018-05-18T15:20:28.885Z,39.10
2018-05-18T15:25:23.257Z,39.40
2018-05-18T15:30:18.402Z,40.40
2018-05-18T15:35:12.742Z,40.30
2018-05-18T15:40:07.122Z,41.00
2018-05-18T15:45:01.492Z,41.30
2018-05-18T15:49:56.635Z,41.00
2018-05-18T15:54:51.167Z,40.90
2018-05-18T15:59:45.543Z,41.20
2018-05-18T16:04:39.974Z,40.50
2018-05-18T16:09:34.318Z,39.60
2018-05-18T16:14:29.445Z,39.60
2018-05-18T16:19:24.726Z,40.30
2018-05-18T16:24:19.202Z,40.30
2018-05-18T16:29:13.590Z,40.40
2018-05-18T16:34:08.361Z,40.50
2018-05-18T16:39:02.524Z,40.10
2018-05-18T16:43:56.910Z,40.00
2018-05-18T16:48:51.314Z,40.40
2018-05-18T16:53:46.047Z,41.00
2018-05-18T16:58:40.448Z,40.60
2018-05-18T17:03:34.867Z,41.10
2018-05-18T17:08:29.281Z,41.50
2018-05-18T17:13:23.759Z,42.40
2018-05-18T17:18:18.399Z,43.20
2018-05-18T17:23:12.813Z,44.00
2018-05-18T17:28:07.203Z,44.30
2018-05-18T17:33:01.594Z,44.60
2018-05-18T17:37:56.133Z,45.30
2018-05-18T17:42:51.296Z,46.00
2018-05-18T17:47:45.636Z,46.00
2018-05-18T17:52:40.042Z,46.00
2018-05-18T17:57:34.516Z,47.50
2018-05-18T18:02:29.058Z,47.30
2018-05-18T18:07:23.411Z,47.90
2018-05-18T18:12:17.969Z,48.30
2018-05-18T18:17:12.472Z,48.90
2018-05-18T18:22:06.865Z,49.90
2018-05-18T18:27:01.248Z,50.60
2018-05-18T18:31:55.768Z,51.20
2018-05-18T18:36:50.140Z,52.80
2018-05-18T18:41:44.512Z,52.60
2018-05-18T18:46:39.671Z,54.10
2018-05-18T18:51:34.036Z,54.10
2018-05-18T18:56:29.199Z,55.40
2018-05-18T19:01:23.581Z,55.30
2018-05-18T19:06:18.017Z,55.80
2018-05-18T19:11:12.418Z,57.20
2018-05-18T19:16:06.926Z,58.60
2018-05-18T19:21:01.389Z,59.90
2018-05-18T19:25:56.065Z,60.30
2018-05-18T19:30:50.617Z,61.00
2018-05-18T19:35:44.971Z,61.50
2018-05-18T19:40:39.413Z,61.80
2018-05-18T19:45:33.970Z,63.70
2018-05-18T19:50:28.711Z,64.20
2018-05-18T19:55:24.030Z,65.30
2018-05-18T20:00:19.463Z,65.50
2018-05-18T20:05:14.710Z,67.20
2018-05-18T20:10:11.546Z,67.60
2018-05-18T20:15:06.047Z,67.50
2018-05-18T20:20:00.401Z,68.60
2018-05-18T20:24:55.097Z,69.90
2018-05-18T20:29:49.723Z,70.30
2018-05-18T20:34:44.092Z,71.10
2018-05-18T20:39:39.246Z,72.70
2018-05-18T20:44:33.618Z,72.70
2018-05-18T20:49:28.053Z,73.80
2018-05-18T20:54:22.495Z,74.30
2018-05-18T20:59:17.101Z,75.50
2018-05-18T21:04:11.498Z,76.40
2018-05-18T21:09:05.730Z,77.20
2018-05-18T21:14:00.884Z,77.80
2018-05-18T21:18:55.247Z,77.70
2018-05-18T21:23:50.500Z,79.50
2018-05-18T21:28:44.851Z,79.40
2018-05-18T21:33:39.218Z,79.80
2018-05-18T21:38:33.584Z,81.60
2018-05-18T21:43:28.729Z,82.10
2018-05-18T21:48:23.384Z,82.30
2018-05-18T21:53:17.964Z,83.70
2018-05-18T21:58:12.360Z,85.10
2018-05-18T22:03:06.857Z,85.20
2018-05-18T22:08:01.445Z,86.50
2018-05-18T22:12:56.862Z,88.90
2018-05-18T22:17:52.055Z,88.10
2018-05-18T22:22:46.531Z,87.90
2018-05-18T22:27:40.934Z,88.70
2018-05-18T22:32:35.284Z,88.00
2018-05-18T22:37:29.668Z,87.90
2018-05-18T22:42:24.078Z,88.70
2018-05-18T22:47:18.745Z,88.70
2018-05-18T22:52:13.446Z,90.20
2018-05-18T22:57:07.820Z,90.20
2018-05-18T23:02:03.214Z,89.90
2018-05-18T23:06:57.599Z,89.90
2018-05-18T23:11:51.998Z,90.00
2018-05-18T23:16:46.359Z,90.60
2018-05-18T23:21:41.776Z,91.10
2018-05-18T23:26:36.901Z,91.60
2018-05-18T23:31:32.032Z,91.40
2018-05-18T23:36:27.186Z,91.60
2018-05-18T23:41:21.595Z,91.60
2018-05-18T23:46:16.106Z,91.90
2018-05-18T23:51:10.456Z,92.80
2018-05-18T23:56:05.617Z,92.70
